createdAt,value
2022-09-11T05:03:11.832Z,16.50
2022-09-11T05:08:15.516Z,16.50
2022-09-11T05:13:19.281Z,16.50
2022-09-11T05:18:24.319Z,16.50
2022-09-11T05:23:28.081Z,16.60
2022-09-11T05:28:33.104Z,16.70
2022-09-11T05:33:38.558Z,16.70
2022-09-11T05:38:43.019Z,16.80
2022-09-11T05:43:47.337Z,16.70
2022-09-11T05:48:52.564Z,16.80
2022-09-11T05:53:58.152Z,16.80
2022-09-11T05:59:03.452Z,16.80
2022-09-11T06:04:12.420Z,16.80
2022-09-11T06:09:16.835Z,16.80
2022-09-11T06:14:21.543Z,16.80
2022-09-11T06:19:27.805Z,16.80
2022-09-11T06:24:32.163Z,16.80
2022-09-11T06:29:35.874Z,16.90
2022-09-11T06:34:40.924Z,17.00
2022-09-11T06:39:45.475Z,17.10
2022-09-11T06:44:53.887Z,17.30
2022-09-11T06:49:59.247Z,17.50
2022-09-11T06:55:04.447Z,17.60
2022-09-11T07:00:10.046Z,17.80
2022-09-11T07:05:16.677Z,18.00
2022-09-11T07:10:23.874Z,18.10
2022-09-11T07:15:28.035Z,18.20
2022-09-11T07:20:35.725Z,18.30
2022-09-11T07:25:40.664Z,18.40
2022-09-11T07:30:45.043Z,18.50
2022-09-11T07:35:51.372Z,18.50
2022-09-11T07:40:56.631Z,18.50
2022-09-11T07:46:00.494Z,18.60
2022-09-11T07:51:08.353Z,18.80
2022-09-11T07:56:14.836Z,19.00
2022-09-11T08:01:20.291Z,19.20
2022-09-11T08:06:27.115Z,19.40
2022-09-11T08:11:32.415Z,19.60
2022-09-11T08:16:37.008Z,19.80
2022-09-11T08:21:42.505Z,20.00
2022-09-11T08:26:48.932Z,20.30
2022-09-11T08:31:53.386Z,20.60
2022-09-11T08:36:59.486Z,20.80
2022-09-11T08:42:09.474Z,21.00
2022-09-11T08:47:19.498Z,21.30
2022-09-11T08:52:24.883Z,21.70
2022-09-11T08:57:40.369Z,22.20
2022-09-11T09:03:15.501Z,22.70
2022-09-11T09:08:31.645Z,23.30
2022-09-11T09:13:51.900Z,23.80
2022-09-11T09:19:03.324Z,24.50
2022-09-11T09:24:19.385Z,25.10
2022-09-11T09:29:28.782Z,25.70
2022-09-11T09:34:37.627Z,26.20
2022-09-11T09:39:44.718Z,26.80
2022-09-11T09:45:10.632Z,27.40
2022-09-11T09:50:18.141Z,27.90
2022-09-11T09:55:23.583Z,28.40
2022-09-11T10:00:27.604Z,28.50
2022-09-11T10:05:33.319Z,28.60
2022-09-11T10:10:39.926Z,28.90
2022-09-11T10:15:44.066Z,29.20
2022-09-11T10:20:48.258Z,29.80
2022-09-11T10:25:53.702Z,29.90
2022-09-11T10:31:00.254Z,30.10
2022-09-11T10:36:06.151Z,30.50
2022-09-11T10:41:19.260Z,31.10
2022-09-11T10:46:29.777Z,31.30
2022-09-11T10:51:35.289Z,31.20
2022-09-11T10:56:48.339Z,31.20
2022-09-11T11:01:52.366Z,31.20
2022-09-11T11:07:04.456Z,31.70
2022-09-11T11:12:40.061Z,32.10
2022-09-11T11:17:48.438Z,32.60
2022-09-11T11:23:05.888Z,32.80
2022-09-11T11:28:25.275Z,32.60
2022-09-11T11:33:51.290Z,32.70
2022-09-11T11:39:02.086Z,33.20
2022-09-11T11:44:12.910Z,33.80
2022-09-11T11:49:20.526Z,34.20
2022-09-11T11:54:28.835Z,34.20
2022-09-11T11:59:41.527Z,34.10
2022-09-11T12:04:50.740Z,34.20
2022-09-11T12:09:57.413Z,34.10
2022-09-11T12:15:06.718Z,34.30
2022-09-11T12:20:40.804Z,34.80
2022-09-11T12:26:06.111Z,35.50
2022-09-11T12:31:12.480Z,35.90
2022-09-11T12:36:20.016Z,35.90
2022-09-11T12:41:28.855Z,35.50
2022-09-11T12:47:12.659Z,35.30
2022-09-11T12:52:42.947Z,34.90
2022-09-11T12:57:46.659Z,34.50
2022-09-11T13:02:55.499Z,34.30
2022-09-11T13:08:04.252Z,34.30
2022-09-11T13:13:31.309Z,34.60
2022-09-11T13:18:35.507Z,35.10
2022-09-11T13:23:42.447Z,35.00
2022-09-11T13:28:49.297Z,34.60
2022-09-11T13:33:53.821Z,34.70
2022-09-11T13:39:03.043Z,34.60
2022-09-11T13:44:12.761Z,34.60
2022-09-11T13:49:28.799Z,34.30
2022-09-11T13:54:38.376Z,34.50
2022-09-11T13:59:48.249Z,34.40
2022-09-11T14:04:54.090Z,33.90
2022-09-11T14:10:04.241Z,33.30
2022-09-11T14:15:18.713Z,32.80
2022-09-11T14:20:23.179Z,32.90
2022-09-11T14:25:28.065Z,33.10
2022-09-11T14:30:37.529Z,33.20
2022-09-11T14:35:41.648Z,33.60
2022-09-11T14:40:52.917Z,33.40
2022-09-11T14:45:57.773Z,32.80
2022-09-11T14:51:09.896Z,32.40
2022-09-11T14:56:17.709Z,32.30
2022-09-11T15:01:21.320Z,31.90
2022-09-11T15:06:25.489Z,31.40
2022-09-11T15:11:31.206Z,30.70
2022-09-11T15:16:34.781Z,30.30
2022-09-11T15:21:38.631Z,30.00
2022-09-11T15:26:43.770Z,29.60
2022-09-11T15:31:48.053Z,29.40
2022-09-11T15:36:51.584Z,29.10
2022-09-11T15:41:57.351Z,28.90
2022-09-11T15:47:02.072Z,28.70
2022-09-11T15:52:05.856Z,28.50
2022-09-11T15:57:10.805Z,28.40
2022-09-11T16:02:14.675Z,28.20
2022-09-11T16:07:18.323Z,28.10
2022-09-11T16:12:23.900Z,27.90
2022-09-11T16:17:31.278Z,27.80
2022-09-11T16:22:34.851Z,27.70
2022-09-11T16:27:39.946Z,27.60
2022-09-11T16:32:43.842Z,27.50
2022-09-11T16:37:47.407Z,27.40
2022-09-11T16:42:52.327Z,27.40
2022-09-11T16:47:57.137Z,27.30
2022-09-11T16:53:00.686Z,27.30
2022-09-11T16:58:05.701Z,27.20
2022-09-11T17:03:09.285Z,27.20
2022-09-11T17:08:12.780Z,27.10
2022-09-11T17:13:18.201Z,27.10
2022-09-11T17:18:21.746Z,27.00
2022-09-11T17:23:25.429Z,26.90
2022-09-11T17:28:30.274Z,26.80
2022-09-11T17:33:33.761Z,26.80
2022-09-11T17:38:37.899Z,26.70
2022-09-11T17:43:43.616Z,26.70
2022-09-11T17:48:47.780Z,26.70
2022-09-11T17:53:52.775Z,26.60
2022-09-11T17:58:59.690Z,26.50
2022-09-11T18:04:03.664Z,26.40
2022-09-11T18:09:12.019Z,26.30
2022-09-11T18:14:18.283Z,26.10
2022-09-11T18:19:21.848Z,26.10
2022-09-11T18:24:29.804Z,26.00
2022-09-11T18:29:35.218Z,25.80
2022-09-11T18:34:39.320Z,25.70
2022-09-11T18:39:42.913Z,25.60
2022-09-11T18:44:47.781Z,25.50
2022-09-11T18:49:51.482Z,25.40
2022-09-11T18:54:55.010Z,25.30
2022-09-11T19:00:01.418Z,25.20
2022-09-11T19:05:05.341Z,25.10
2022-09-11T19:10:09.635Z,24.90
2022-09-11T19:15:14.489Z,24.60
2022-09-11T19:20:20.739Z,24.40
2022-09-11T19:25:25.378Z,24.20
2022-09-11T19:30:30.775Z,24.10
2022-09-11T19:35:34.625Z,24.00
2022-09-11T19:40:38.153Z,24.00
2022-09-11T19:45:44.024Z,23.90
2022-09-11T19:50:48.143Z,23.90
2022-09-11T19:55:54.488Z,23.70
2022-09-11T20:01:04.397Z,23.70
2022-09-11T20:06:10.261Z,23.60
2022-09-11T20:11:16.969Z,23.50
2022-09-11T20:16:24.499Z,23.40
2022-09-11T20:21:28.118Z,23.20
2022-09-11T20:26:33.626Z,23.10
2022-09-11T20:31:48.679Z,23.00
2022-09-11T20:36:52.450Z,22.90
2022-09-11T20:41:55.979Z,22.80
2022-09-11T20:47:01.040Z,22.70
2022-09-11T20:52:04.772Z,22.60
2022-09-11T20:57:08.352Z,22.50
2022-09-11T21:02:14.818Z,22.30
2022-09-11T21:07:18.456Z,22.30
2022-09-11T21:12:21.964Z,22.20
2022-09-11T21:17:26.853Z,22.10
2022-09-11T21:22:30.346Z,22.00
2022-09-11T21:27:33.924Z,21.80
2022-09-11T21:32:38.861Z,21.70
2022-09-11T21:37:42.415Z,21.70
2022-09-11T21:42:45.969Z,21.70
2022-09-11T21:47:50.940Z,21.50
2022-09-11T21:52:55.585Z,21.50
2022-09-11T21:57:59.444Z,21.40
2022-09-11T22:03:04.613Z,21.40
2022-09-11T22:08:08.745Z,21.30
2022-09-11T22:13:12.634Z,21.30
2022-09-11T22:18:18.959Z,21.20
2022-09-11T22:23:22.881Z,21.20
2022-09-11T22:28:27.065Z,21.20
